createdAt,value
2018-07-20T00:03:53.077Z,23.02
2018-07-20T00:07:59.464Z,22.97
2018-07-20T00:12:04.490Z,22.91
2018-07-20T00:16:09.064Z,22.87
2018-07-20T00:20:14.231Z,22.85
2018-07-20T00:24:19.686Z,22.83
2018-07-20T00:28:24.878Z,22.79
2018-07-20T00:32:32.851Z,22.72
2018-07-20T00:36:37.790Z,22.69
2018-07-20T00:40:42.310Z,22.64
2018-07-20T00:44:48.009Z,22.60
2018-07-20T00:48:54.009Z,22.55
2018-07-20T00:52:58.553Z,22.52
2018-07-20T00:57:04.406Z,22.48
2018-07-20T01:01:10.510Z,22.47
2018-07-20T01:05:15.592Z,22.42
2018-07-20T01:09:20.320Z,22.37
2018-07-20T01:13:24.888Z,22.27
2018-07-20T01:17:30.445Z,22.23
2018-07-20T01:21:37.594Z,22.18
2018-07-20T01:25:48.681Z,22.16
2018-07-20T01:29:55.141Z,22.12
2018-07-20T01:34:05.987Z,22.10
2018-07-20T01:38:10.838Z,22.08
2018-07-20T01:42:15.498Z,22.05
2018-07-20T01:46:19.807Z,21.99
2018-07-20T01:50:24.438Z,21.95
2018-07-20T01:54:29.375Z,21.93
2018-07-20T01:58:33.766Z,21.91
2018-07-20T02:02:40.087Z,21.89
2018-07-20T02:06:45.101Z,21.85
2018-07-20T02:10:58.962Z,21.84
2018-07-20T02:15:05.119Z,21.80
2018-07-20T02:19:09.707Z,21.77
2018-07-20T02:23:15.692Z,21.76
2018-07-20T02:27:20.961Z,21.72
2018-07-20T02:31:27.091Z,21.71
2018-07-20T02:35:31.956Z,21.69
2018-07-20T02:39:38.487Z,21.63
2018-07-20T02:43:43.900Z,21.60
2018-07-20T02:47:50.051Z,21.55
2018-07-20T02:51:56.103Z,21.50
2018-07-20T02:56:00.510Z,21.44
2018-07-20T03:00:05.036Z,21.36
2018-07-20T03:04:10.677Z,21.31
2018-07-20T03:08:15.661Z,21.28
2018-07-20T03:12:20.922Z,21.21
2018-07-20T03:16:26.045Z,21.14
2018-07-20T03:20:32.274Z,21.11
2018-07-20T03:24:36.753Z,21.10
2018-07-20T03:28:42.122Z,21.06
2018-07-20T03:32:50.052Z,21.01
2018-07-20T03:36:58.001Z,20.99
2018-07-20T03:41:02.947Z,20.96
2018-07-20T03:45:09.328Z,20.96
2018-07-20T03:53:28.267Z,20.95
2018-07-20T03:57:33.125Z,20.92
2018-07-20T04:01:40.927Z,20.90
2018-07-20T04:05:47.610Z,20.91
2018-07-20T04:09:54.687Z,20.90
2018-07-20T04:14:00.342Z,20.92
2018-07-20T04:18:07.947Z,20.92
2018-07-20T04:22:14.778Z,20.95
2018-07-20T04:26:24.772Z,20.97
2018-07-20T04:30:30.793Z,20.97
2018-07-20T04:34:40.234Z,21.01
2018-07-20T04:38:54.731Z,21.02
2018-07-20T04:43:11.527Z,21.04
2018-07-20T04:47:33.484Z,21.06
2018-07-20T04:51:49.878Z,21.10
2018-07-20T04:56:04.895Z,21.14
2018-07-20T05:00:25.979Z,21.20
2018-07-20T05:04:34.878Z,21.29
2018-07-20T05:08:50.860Z,21.37
2018-07-20T05:12:59.529Z,21.45
2018-07-20T05:17:18.068Z,21.57
2018-07-20T05:21:32.107Z,21.75
2018-07-20T05:26:09.130Z,21.93
2018-07-20T05:30:35.573Z,22.16
2018-07-20T05:34:39.339Z,22.42
2018-07-20T05:38:42.844Z,22.69
2018-07-20T05:42:46.298Z,22.97
2018-07-20T05:46:49.757Z,23.23
2018-07-20T05:50:53.208Z,23.45
2018-07-20T05:54:56.755Z,23.65
2018-07-20T05:59:00.260Z,23.88
2018-07-20T06:03:03.734Z,24.06
2018-07-20T06:07:07.186Z,24.25
2018-07-20T06:11:10.650Z,24.43
2018-07-20T06:15:14.086Z,24.60
2018-07-20T06:19:17.530Z,24.81
2018-07-20T06:23:21.047Z,24.97
2018-07-20T06:27:24.555Z,24.99
2018-07-20T06:31:28.018Z,25.16
2018-07-20T06:35:31.490Z,25.41
2018-07-20T06:39:34.971Z,25.48
2018-07-20T06:43:38.399Z,25.53
2018-07-20T06:47:41.897Z,25.61
2018-07-20T06:51:45.331Z,25.66
2018-07-20T06:55:48.804Z,25.72
2018-07-20T06:59:52.263Z,25.89
2018-07-20T07:03:55.833Z,26.07
2018-07-20T07:07:59.418Z,26.23
2018-07-20T07:12:02.855Z,26.28
2018-07-20T07:16:06.806Z,26.30
2018-07-20T07:20:10.369Z,26.41
2018-07-20T07:24:13.852Z,26.44
2018-07-20T07:28:17.354Z,26.43
2018-07-20T07:32:20.845Z,26.55
2018-07-20T07:36:24.315Z,26.66
2018-07-20T07:40:27.762Z,26.77
2018-07-20T07:44:31.248Z,26.92
2018-07-20T07:48:34.732Z,27.15
2018-07-20T07:52:38.253Z,27.36
2018-07-20T07:56:41.976Z,27.50
2018-07-20T08:00:45.493Z,27.54
2018-07-20T08:04:48.983Z,27.47
2018-07-20T08:08:52.443Z,27.41
2018-07-20T08:12:56.149Z,27.52
2018-07-20T08:16:59.730Z,27.54
2018-07-20T08:21:03.276Z,27.68
2018-07-20T08:25:06.826Z,27.77
2018-07-20T08:29:10.321Z,27.87
2018-07-20T08:33:13.790Z,27.74
2018-07-20T08:37:17.354Z,27.86
2018-07-20T08:41:21.210Z,27.82
2018-07-20T08:45:24.651Z,27.67
2018-07-20T08:49:28.118Z,27.60
2018-07-20T08:53:31.740Z,27.65
2018-07-20T08:57:35.200Z,27.63
2018-07-20T09:01:38.784Z,27.62
2018-07-20T09:05:42.247Z,27.57
2018-07-20T09:09:45.731Z,27.70
2018-07-20T09:13:49.409Z,27.76
2018-07-20T09:17:52.735Z,27.87
2018-07-20T09:21:56.308Z,28.03
2018-07-20T09:25:59.770Z,28.36
2018-07-20T09:30:03.253Z,28.55
2018-07-20T09:34:07.031Z,28.62
2018-07-20T09:38:10.523Z,28.64
2018-07-20T09:42:14.058Z,28.69
2018-07-20T09:46:17.534Z,28.81
2018-07-20T09:50:20.966Z,29.03
2018-07-20T09:54:24.458Z,29.01
2018-07-20T09:58:28.034Z,29.03
2018-07-20T10:02:31.427Z,29.03
2018-07-20T10:06:34.959Z,29.12
2018-07-20T10:10:38.415Z,29.25
2018-07-20T10:14:41.914Z,29.40
2018-07-20T10:18:45.767Z,29.58
2018-07-20T10:22:49.264Z,29.57
2018-07-20T10:26:52.753Z,29.65
2018-07-20T10:30:56.238Z,29.63
2018-07-20T10:34:59.785Z,29.51
2018-07-20T10:39:03.359Z,29.50
2018-07-20T10:43:06.892Z,29.48
2018-07-20T10:47:10.329Z,29.23
2018-07-20T10:51:13.786Z,29.32
2018-07-20T10:55:17.569Z,29.46
2018-07-20T10:59:21.047Z,29.49
2018-07-20T11:03:24.590Z,29.57
2018-07-20T11:07:28.035Z,29.66
2018-07-20T11:11:31.539Z,29.83
2018-07-20T11:15:35.060Z,29.96
2018-07-20T11:19:40.104Z,30.04
2018-07-20T11:23:43.566Z,30.08
2018-07-20T11:27:47.129Z,30.18
2018-07-20T11:31:50.598Z,30.11
2018-07-20T11:35:54.094Z,30.09
2018-07-20T11:39:57.549Z,30.20
2018-07-20T11:44:01.011Z,30.13
2018-07-20T11:48:04.466Z,30.16
2018-07-20T11:52:07.943Z,30.22
2018-07-20T11:56:11.378Z,30.19
2018-07-20T12:00:14.893Z,30.15
2018-07-20T12:04:18.363Z,30.20
2018-07-20T12:08:21.828Z,30.18
2018-07-20T12:12:25.251Z,30.28
2018-07-20T12:16:28.718Z,30.41
2018-07-20T12:20:32.197Z,30.40
2018-07-20T12:24:35.638Z,30.39
2018-07-20T12:28:39.171Z,30.36
2018-07-20T12:32:42.622Z,30.30
2018-07-20T12:36:46.166Z,30.36
2018-07-20T12:40:49.746Z,30.47
2018-07-20T12:44:53.258Z,30.40
2018-07-20T12:48:56.690Z,30.31
2018-07-20T12:53:00.162Z,30.16
2018-07-20T12:57:03.842Z,30.08
2018-07-20T13:01:07.325Z,30.28
2018-07-20T13:05:10.787Z,30.37
2018-07-20T13:09:14.273Z,30.39
2018-07-20T13:13:17.751Z,30.37
2018-07-20T13:17:21.212Z,30.42
2018-07-20T13:21:24.617Z,30.44
2018-07-20T13:25:28.157Z,30.41
2018-07-20T13:29:31.664Z,30.38
2018-07-20T13:33:36.093Z,30.33
2018-07-20T13:37:39.562Z,30.27
2018-07-20T13:41:43.010Z,30.27
2018-07-20T13:45:46.517Z,30.41
2018-07-20T13:49:50.097Z,30.52
2018-07-20T13:53:53.606Z,30.51
2018-07-20T13:57:57.135Z,30.49
2018-07-20T14:02:00.603Z,30.53
2018-07-20T14:06:04.147Z,30.49
2018-07-20T14:10:07.656Z,30.55
2018-07-20T14:14:11.262Z,30.65
2018-07-20T14:18:14.782Z,30.74
2018-07-20T14:22:18.214Z,30.75
2018-07-20T14:26:21.712Z,30.69
2018-07-20T14:30:25.146Z,30.69
2018-07-20T14:34:28.633Z,30.72
2018-07-20T14:38:32.158Z,30.71
2018-07-20T14:42:35.662Z,30.65
2018-07-20T14:46:39.134Z,30.64
2018-07-20T14:50:42.580Z,30.52
2018-07-20T14:54:46.098Z,30.41
2018-07-20T14:58:49.596Z,30.36
2018-07-20T15:02:53.063Z,30.30
2018-07-20T15:06:56.588Z,30.31
2018-07-20T15:11:00.112Z,30.36
2018-07-20T15:15:03.599Z,30.40
2018-07-20T15:19:07.278Z,30.41
2018-07-20T15:23:11.847Z,30.39
2018-07-20T15:27:15.347Z,30.39
2018-07-20T15:31:18.884Z,30.38
2018-07-20T15:35:22.268Z,30.39
2018-07-20T15:39:25.768Z,30.40
2018-07-20T15:43:29.213Z,30.35
2018-07-20T15:47:32.870Z,30.33
2018-07-20T15:53:35.054Z,30.33
2018-07-20T15:55:39.722Z,30.29
2018-07-20T15:59:43.260Z,30.26
2018-07-20T16:03:46.645Z,30.23
2018-07-20T16:07:50.146Z,30.15
2018-07-20T16:11:53.610Z,30.08
2018-07-20T16:15:57.157Z,30.06
2018-07-20T16:20:00.616Z,30.06
2018-07-20T16:24:04.190Z,30.01
2018-07-20T16:28:07.716Z,30.02
2018-07-20T16:32:11.268Z,30.02
2018-07-20T16:36:14.730Z,30.00
2018-07-20T16:40:18.231Z,29.99
2018-07-20T16:44:21.836Z,29.94
2018-07-20T16:48:25.336Z,29.92
2018-07-20T16:52:28.814Z,29.88
2018-07-20T16:56:32.251Z,29.83
2018-07-20T17:00:35.709Z,29.80
2018-07-20T17:04:39.134Z,29.79
2018-07-20T17:08:42.658Z,29.76
2018-07-20T17:12:46.094Z,29.72
2018-07-20T17:16:49.608Z,29.70
2018-07-20T17:20:53.086Z,29.64
2018-07-20T17:24:56.538Z,29.60
2018-07-20T17:29:00.005Z,29.57
2018-07-20T17:33:03.510Z,29.52
2018-07-20T17:37:06.962Z,29.48
2018-07-20T17:41:10.394Z,29.45
2018-07-20T17:45:13.892Z,29.41
2018-07-20T17:49:17.377Z,29.39
2018-07-20T17:53:20.843Z,29.31
2018-07-20T17:57:24.338Z,29.25
2018-07-20T18:01:27.861Z,29.19
2018-07-20T18:05:31.382Z,29.12
2018-07-20T18:09:34.831Z,29.06
2018-07-20T18:13:38.315Z,29.01
2018-07-20T18:17:41.891Z,28.93
2018-07-20T18:21:45.358Z,28.86
2018-07-20T18:25:48.851Z,28.81
2018-07-20T18:29:52.322Z,28.74
2018-07-20T18:33:55.894Z,28.65
2018-07-20T18:37:59.295Z,28.57
2018-07-20T18:42:02.803Z,28.52
2018-07-20T18:46:06.454Z,28.45
2018-07-20T18:50:10.532Z,28.35
2018-07-20T18:54:13.962Z,28.28
2018-07-20T18:58:17.430Z,28.18
2018-07-20T19:02:20.910Z,28.08
2018-07-20T19:06:24.615Z,27.98
2018-07-20T19:10:28.035Z,27.91
2018-07-20T19:14:31.523Z,27.81
2018-07-20T19:18:34.982Z,27.71
2018-07-20T19:22:38.433Z,27.61
2018-07-20T19:26:42.102Z,27.52
2018-07-20T19:30:45.568Z,27.45
2018-07-20T19:34:49.168Z,27.36
2018-07-20T19:38:52.658Z,27.28
2018-07-20T19:42:56.341Z,27.21
2018-07-20T19:46:59.814Z,27.12
2018-07-20T19:51:03.326Z,27.02
2018-07-20T19:55:07.339Z,26.95
2018-07-20T19:59:10.779Z,26.85
2018-07-20T20:03:14.222Z,26.77
2018-07-20T20:07:17.696Z,26.68
2018-07-20T20:11:21.164Z,26.61
2018-07-20T20:15:24.674Z,26.56
2018-07-20T20:19:28.166Z,26.47
2018-07-20T20:23:31.664Z,26.42
2018-07-20T20:27:35.114Z,26.38
2018-07-20T20:31:38.566Z,26.31
2018-07-20T20:35:42.030Z,26.24
2018-07-20T20:39:45.520Z,26.16
2018-07-20T20:43:49.018Z,26.08
2018-07-20T20:47:52.469Z,26.03
2018-07-20T20:51:55.974Z,25.93
2018-07-20T20:55:59.446Z,25.87
2018-07-20T21:00:02.960Z,25.81
2018-07-20T21:04:06.464Z,25.73
2018-07-20T21:08:09.907Z,25.67
2018-07-20T21:12:13.420Z,25.59
2018-07-20T21:16:16.808Z,25.52
2018-07-20T21:20:20.250Z,25.47
2018-07-20T21:24:23.693Z,25.37
2018-07-20T21:28:27.150Z,25.31
2018-07-20T21:32:30.664Z,25.27
2018-07-20T21:36:34.137Z,25.22
2018-07-20T21:40:37.631Z,25.13
2018-07-20T21:44:41.182Z,25.04
2018-07-20T21:48:44.744Z,24.95
2018-07-20T21:52:48.216Z,24.86
2018-07-20T21:56:51.651Z,24.78
2018-07-20T22:00:55.139Z,24.70
2018-07-20T22:04:58.563Z,24.60
2018-07-20T22:09:02.035Z,24.52
2018-07-20T22:13:05.509Z,24.47
2018-07-20T22:17:08.951Z,24.46
2018-07-20T22:21:12.457Z,24.42
2018-07-20T22:25:15.920Z,24.39
2018-07-20T22:29:19.358Z,24.32
2018-07-20T22:33:22.830Z,24.24
2018-07-20T22:37:26.258Z,24.16
2018-07-20T22:41:29.768Z,24.09
2018-07-20T22:45:33.209Z,24.03
2018-07-20T22:49:36.680Z,23.94
2018-07-20T22:53:40.188Z,23.81
2018-07-20T22:57:43.657Z,23.75
2018-07-20T23:01:47.190Z,23.68
2018-07-20T23:05:50.611Z,23.66
2018-07-20T23:09:54.105Z,23.65
2018-07-20T23:13:57.981Z,23.63
2018-07-20T23:18:01.508Z,23.60
2018-07-20T23:22:04.926Z,23.53
2018-07-20T23:26:08.446Z,23.50
2018-07-20T23:30:11.919Z,23.44
2018-07-20T23:34:15.391Z,23.36
2018-07-20T23:38:18.863Z,23.32
2018-07-20T23:42:22.299Z,23.25
2018-07-20T23:46:25.852Z,23.21
2018-07-20T23:50:29.334Z,23.19
2018-07-20T23:54:32.796Z,23.14
2018-07-20T23:58:36.237Z,23.08
